Time;durP1;ratioP1;P1;durP2;ratioP2;P2;SDS_P1;SDS_P2;PMS_P1;PMS_P2;Temp;Humidity;BMP_temperature;BMP_pressure;BME280_temperature;BME280_humidity;BME280_pressure;Samples;Min_cycle;Max_cycle;Signal;HPM_P1;HPM_P2
2022/09/06 00:00:39;;;;;;;4.32;2.75;;;19.90;99.90;;;;;;5074307;28;20044;-67
2022/09/06 00:03:07;;;;;;;3.63;2.72;;;19.90;99.90;;;;;;5074046;28;20040;-67
2022/09/06 00:05:33;;;;;;;4.78;3.22;;;19.80;99.90;;;;;;5073206;28;20044;-68
2022/09/06 00:08:00;;;;;;;4.18;2.65;;;19.80;99.90;;;;;;5074037;28;20041;-67
2022/09/06 00:10:27;;;;;;;3.55;2.78;;;19.80;99.90;;;;;;5074061;28;20064;-68
2022/09/06 00:12:53;;;;;;;3.97;2.88;;;19.80;99.90;;;;;;5074101;28;20098;-68
2022/09/06 00:15:21;;;;;;;3.35;2.65;;;19.80;99.90;;;;;;5072779;28;20045;-67
2022/09/06 00:17:47;;;;;;;3.45;2.50;;;19.80;99.90;;;;;;5074000;28;20048;-67
2022/09/06 00:20:13;;;;;;;3.15;2.40;;;19.80;99.90;;;;;;5056178;28;20044;-67
2022/09/06 00:22:39;;;;;;;2.97;2.67;;;19.80;99.90;;;;;;5070120;28;20040;-67
2022/09/06 00:25:06;;;;;;;3.97;2.60;;;19.80;99.90;;;;;;5073671;28;20431;-67
2022/09/06 00:27:33;;;;;;;3.95;2.40;;;19.80;99.90;;;;;;5073731;28;20042;-67
2022/09/06 00:29:58;;;;;;;3.83;3.10;;;19.80;99.90;;;;;;5073685;28;20555;-67
2022/09/06 00:32:24;;;;;;;3.33;2.90;;;19.80;99.90;;;;;;5072574;28;20049;-67
2022/09/06 00:34:50;;;;;;;3.78;2.60;;;19.70;99.90;;;;;;5073733;28;20052;-67
2022/09/06 00:37:15;;;;;;;4.32;3.05;;;19.70;99.90;;;;;;5073549;28;20044;-66
2022/09/06 00:39:41;;;;;;;5.55;2.90;;;19.60;99.90;;;;;;5073496;28;20389;-67
2022/09/06 00:42:08;;;;;;;3.00;2.70;;;19.60;99.90;;;;;;5073438;28;20270;-67
2022/09/06 00:44:34;;;;;;;4.13;3.13;;;19.50;99.90;;;;;;5073395;28;20048;-68
2022/09/06 00:47:00;;;;;;;3.65;2.67;;;19.50;99.90;;;;;;5072165;28;20405;-68
2022/09/06 00:49:35;;;;;;;3.85;3.33;;;19.40;99.90;;;;;;5072005;28;20064;-68
2022/09/06 00:52:08;;;;;;;4.22;3.28;;;19.40;99.90;;;;;;5072612;28;20084;-68
2022/09/06 00:54:34;;;;;;;3.83;3.25;;;19.30;99.90;;;;;;5073715;28;20044;-68
2022/09/06 00:57:00;;;;;;;3.95;3.10;;;19.30;99.90;;;;;;5055059;28;20373;-68
2022/09/06 00:59:32;;;;;;;3.60;3.25;;;19.30;99.90;;;;;;5073187;28;20040;-68
2022/09/06 01:01:58;;;;;;;3.78;3.17;;;19.20;99.90;;;;;;5072836;28;20047;-68
2022/09/06 01:04:25;;;;;;;3.75;3.45;;;19.20;99.90;;;;;;5073359;28;20044;-68
2022/09/06 01:07:29;;;;;;;4.00;3.17;;;19.20;99.90;;;;;;5073009;28;20070;-68
2022/09/06 01:09:54;;;;;;;4.05;3.08;;;19.10;99.90;;;;;;5055910;28;20132;-68
2022/09/06 01:12:41;;;;;;;3.50;3.20;;;19.10;99.90;;;;;;5073058;28;20385;-68
2022/09/06 01:15:07;;;;;;;3.97;3.30;;;19.10;99.90;;;;;;5071356;28;20127;-68
2022/09/06 01:18:04;;;;;;;3.20;2.83;;;19.10;99.90;;;;;;5070446;28;20124;-68
2022/09/06 01:21:01;;;;;;;3.75;3.10;;;19.10;99.90;;;;;;5058114;28;20051;-68
2022/09/06 01:23:50;;;;;;;4.43;3.22;;;19.10;99.90;;;;;;5072695;28;20041;-68
2022/09/06 01:26:58;;;;;;;4.28;3.08;;;19.10;99.90;;;;;;5062354;28;20485;-68
2022/09/06 01:29:43;;;;;;;4.50;3.22;;;19.10;99.90;;;;;;5071158;28;20048;-68
2022/09/06 01:32:43;;;;;;;5.32;3.17;;;19.10;99.90;;;;;;5072556;28;20055;-67
2022/09/06 01:35:11;;;;;;;4.80;2.97;;;19.00;99.90;;;;;;5047259;28;20052;-67
2022/09/06 01:37:37;;;;;;;3.95;3.15;;;19.00;99.90;;;;;;5051386;28;20421;-66
2022/09/06 01:40:03;;;;;;;4.22;3.28;;;19.00;99.90;;;;;;5052559;28;20056;-67
2022/09/06 01:42:31;;;;;;;4.35;3.22;;;19.00;99.90;;;;;;5052309;28;20040;-67
2022/09/06 01:45:07;;;;;;;4.03;3.10;;;18.90;99.90;;;;;;5071358;28;20419;-68
2022/09/06 01:47:46;;;;;;;4.95;3.22;;;18.90;99.90;;;;;;5071136;28;20060;-67
2022/09/06 01:50:45;;;;;;;3.55;2.95;;;18.90;99.90;;;;;;5072252;28;20048;-66
2022/09/06 01:53:45;;;;;;;4.60;3.58;;;18.90;99.90;;;;;;5072050;28;20044;-66
2022/09/06 01:56:38;;;;;;;4.00;3.28;;;18.90;99.90;;;;;;5035761;28;20059;-68
2022/09/06 01:59:17;;;;;;;4.95;3.25;;;18.90;99.90;;;;;;5072010;28;20484;-67
2022/09/06 02:02:04;;;;;;;4.47;3.00;;;18.90;99.90;;;;;;5071918;28;20500;-67
2022/09/06 02:04:58;;;;;;;4.05;3.58;;;18.90;99.90;;;;;;5071167;28;20178;-67
2022/09/06 02:07:33;;;;;;;3.50;3.17;;;18.90;99.90;;;;;;5071949;28;20044;-68
2022/09/06 02:10:15;;;;;;;4.50;3.40;;;18.90;99.90;;;;;;5070757;28;20096;-67
2022/09/06 02:12:44;;;;;;;4.63;2.97;;;18.90;99.90;;;;;;5070817;28;20065;-68
2022/09/06 02:15:17;;;;;;;5.13;3.10;;;18.80;99.90;;;;;;5071745;28;20076;-68
2022/09/06 02:17:51;;;;;;;3.55;3.20;;;18.90;99.90;;;;;;5071582;28;20044;-68
2022/09/06 02:20:25;;;;;;;4.00;3.30;;;18.90;99.90;;;;;;5070660;28;20044;-67
2022/09/06 02:22:53;;;;;;;5.50;3.33;;;18.90;99.90;;;;;;5069270;28;20033;-67
2022/09/06 02:25:38;;;;;;;4.60;3.45;;;18.90;99.90;;;;;;5070479;28;20496;-67
2022/09/06 02:28:08;;;;;;;4.10;3.38;;;18.80;99.90;;;;;;5071771;28;20063;-68
2022/09/06 02:30:40;;;;;;;3.53;3.10;;;18.80;99.90;;;;;;5071690;28;20173;-67
2022/09/06 02:33:12;;;;;;;3.90;3.25;;;18.80;99.90;;;;;;5071394;28;20115;-67
2022/09/06 02:35:44;;;;;;;6.38;3.47;;;18.80;99.90;;;;;;5071570;28;20047;-67
2022/09/06 02:38:10;;;;;;;3.88;3.20;;;18.80;99.90;;;;;;5070176;28;20048;-67
2022/09/06 02:40:36;;;;;;;5.00;3.70;;;18.80;99.90;;;;;;5070075;28;20442;-67
2022/09/06 02:43:02;;;;;;;4.68;3.50;;;18.80;99.90;;;;;;5070189;28;20399;-67
2022/09/06 02:45:27;;;;;;;3.50;3.20;;;18.80;99.90;;;;;;5053607;28;20051;-67
2022/09/06 02:47:53;;;;;;;4.47;3.50;;;18.90;99.90;;;;;;5053513;28;20036;-68
2022/09/06 02:50:19;;;;;;;3.85;3.40;;;18.80;99.90;;;;;;5071325;28;20080;-67
2022/09/06 02:52:44;;;;;;;5.97;3.92;;;18.80;99.90;;;;;;5070909;28;20044;-68
2022/09/06 02:55:10;;;;;;;3.85;3.40;;;18.80;99.90;;;;;;5070084;28;20044;-68
2022/09/06 02:57:36;;;;;;;4.60;3.78;;;18.80;99.90;;;;;;5071201;28;20048;-67
2022/09/06 03:00:03;;;;;;;4.53;3.50;;;18.80;99.90;;;;;;5071095;28;20048;-67
2022/09/06 03:02:29;;;;;;;3.95;3.50;;;18.70;99.90;;;;;;5071027;28;20040;-67
2022/09/06 03:04:55;;;;;;;5.05;3.85;;;18.70;99.90;;;;;;5069820;28;20066;-68
2022/09/06 03:07:20;;;;;;;4.18;3.38;;;18.70;99.90;;;;;;5070801;28;20048;-68
2022/09/06 03:09:46;;;;;;;4.55;3.40;;;18.70;99.90;;;;;;5071063;28;20048;-68
2022/09/06 03:12:12;;;;;;;4.25;3.38;;;18.70;99.90;;;;;;5070972;28;20113;-68
2022/09/06 03:14:40;;;;;;;3.85;3.30;;;18.70;99.90;;;;;;5070004;28;20422;-68
2022/09/06 03:17:06;;;;;;;4.45;3.60;;;18.60;99.90;;;;;;5073291;28;20048;-68
2022/09/06 03:19:31;;;;;;;4.30;3.50;;;18.60;99.90;;;;;;5074881;28;20439;-68
2022/09/06 03:21:57;;;;;;;5.13;3.70;;;18.60;99.90;;;;;;5074529;28;20036;-68
2022/09/06 03:24:23;;;;;;;4.65;3.92;;;18.50;99.90;;;;;;5075210;28;20050;-68
2022/09/06 03:26:49;;;;;;;4.18;3.53;;;18.50;99.90;;;;;;5074858;28;20521;-68
2022/09/06 03:29:15;;;;;;;5.30;4.05;;;18.40;99.90;;;;;;5073896;28;20102;-68
2022/09/06 03:31:40;;;;;;;4.30;3.90;;;18.40;99.90;;;;;;5073673;28;20476;-68
2022/09/06 03:34:06;;;;;;;6.22;3.90;;;18.40;99.90;;;;;;5074714;28;20033;-68
2022/09/06 03:36:32;;;;;;;4.45;4.05;;;18.30;99.90;;;;;;5074710;28;20047;-68
2022/09/06 03:38:57;;;;;;;4.30;3.90;;;18.30;99.90;;;;;;5074621;28;20461;-68
2022/09/06 03:41:23;;;;;;;4.97;3.63;;;18.30;99.90;;;;;;5073638;28;20381;-68
2022/09/06 03:43:49;;;;;;;5.38;3.88;;;18.30;99.90;;;;;;5074575;28;20044;-68
2022/09/06 03:46:14;;;;;;;4.50;3.83;;;18.20;99.90;;;;;;5056739;28;20051;-68
2022/09/06 03:48:40;;;;;;;5.00;3.85;;;18.20;99.90;;;;;;5073492;28;20063;-68
2022/09/06 03:51:06;;;;;;;4.25;3.63;;;18.10;99.90;;;;;;5072993;28;20115;-69
2022/09/06 03:53:32;;;;;;;5.18;4.22;;;18.10;99.90;;;;;;5072144;28;20051;-68
2022/09/06 03:55:58;;;;;;;6.30;3.67;;;18.10;99.90;;;;;;5073885;28;20051;-68
2022/09/06 03:58:29;;;;;;;4.43;3.95;;;18.20;99.90;;;;;;5073063;28;20052;-68
2022/09/06 04:01:09;;;;;;;4.32;3.70;;;18.20;99.90;;;;;;5074232;28;20048;-68
2022/09/06 04:03:35;;;;;;;4.57;4.18;;;18.20;99.90;;;;;;5074187;28;20055;-67
2022/09/06 04:06:01;;;;;;;4.38;3.97;;;18.20;99.90;;;;;;5073975;28;20575;-68
2022/09/06 04:08:27;;;;;;;4.93;4.40;;;18.20;99.90;;;;;;5073962;28;20403;-68
2022/09/06 04:10:54;;;;;;;5.55;4.43;;;18.20;99.90;;;;;;5074164;28;20036;-68
2022/09/06 04:13:22;;;;;;;5.15;4.57;;;18.20;99.90;;;;;;5074162;28;20385;-68
2022/09/06 04:15:48;;;;;;;4.38;3.97;;;18.20;99.90;;;;;;5072870;28;20123;-68
2022/09/06 04:18:14;;;;;;;4.47;4.07;;;18.20;99.90;;;;;;5073898;28;20063;-68
2022/09/06 04:20:40;;;;;;;5.88;4.20;;;18.20;99.90;;;;;;5073866;28;20106;-68
2022/09/06 04:23:06;;;;;;;5.72;4.20;;;18.20;99.90;;;;;;5072252;28;20048;-68
2022/09/06 04:25:32;;;;;;;5.15;4.38;;;18.20;99.90;;;;;;5072574;28;20528;-68
2022/09/06 04:27:57;;;;;;;5.13;4.63;;;18.20;99.90;;;;;;5073403;28;20102;-68
2022/09/06 04:30:23;;;;;;;5.40;4.10;;;18.30;99.90;;;;;;5072228;28;20095;-68
2022/09/06 04:32:48;;;;;;;5.22;4.60;;;18.30;99.90;;;;;;5072578;28;20045;-67
2022/09/06 04:35:14;;;;;;;5.95;4.40;;;18.30;99.90;;;;;;5073604;28;20075;-67
2022/09/06 04:37:40;;;;;;;5.10;4.60;;;18.30;99.90;;;;;;5072623;28;20469;-67
2022/09/06 04:40:06;;;;;;;4.45;4.05;;;18.30;99.90;;;;;;5072933;28;20087;-68
2022/09/06 04:42:32;;;;;;;5.40;4.28;;;18.30;99.90;;;;;;5072433;28;20124;-67
2022/09/06 04:44:57;;;;;;;5.07;4.57;;;18.30;99.90;;;;;;5072215;28;20124;-67
2022/09/06 04:47:24;;;;;;;5.65;4.60;;;18.30;99.90;;;;;;5071153;28;20121;-67
2022/09/06 04:49:50;;;;;;;5.85;4.63;;;18.30;99.90;;;;;;5070670;28;20507;-67
2022/09/06 04:52:16;;;;;;;6.15;4.95;;;18.30;99.90;;;;;;5072588;28;20056;-67
2022/09/06 04:54:41;;;;;;;5.50;4.68;;;18.30;99.90;;;;;;5069933;28;20040;-67
2022/09/06 04:57:07;;;;;;;5.30;4.80;;;18.30;99.90;;;;;;5072597;28;20135;-68
2022/09/06 04:59:33;;;;;;;5.15;4.65;;;18.20;99.90;;;;;;5073189;28;20044;-67
2022/09/06 05:01:59;;;;;;;5.43;4.50;;;18.20;99.90;;;;;;5073045;28;20055;-67
2022/09/06 05:04:25;;;;;;;4.85;4.40;;;18.20;99.90;;;;;;5072843;28;20098;-68
2022/09/06 05:07:10;;;;;;;6.05;4.80;;;18.20;99.90;;;;;;5072088;28;20040;-67
2022/09/06 05:09:36;;;;;;;5.15;4.43;;;18.20;99.90;;;;;;5072735;28;20079;-67
2022/09/06 05:12:02;;;;;;;5.75;4.75;;;18.20;99.90;;;;;;5072935;28;20036;-67
2022/09/06 05:14:28;;;;;;;6.28;5.00;;;18.20;99.90;;;;;;5071538;28;20048;-68
2022/09/06 05:16:54;;;;;;;6.13;4.68;;;18.20;99.90;;;;;;5071820;28;20051;-68
2022/09/06 05:19:20;;;;;;;5.45;4.82;;;18.30;99.90;;;;;;5071617;28;20489;-68
2022/09/06 05:21:46;;;;;;;4.88;4.38;;;18.30;99.90;;;;;;5068676;28;20124;-67
2022/09/06 05:24:12;;;;;;;6.63;5.38;;;18.30;99.90;;;;;;5072186;28;20048;-67
2022/09/06 05:26:37;;;;;;;6.57;4.38;;;18.30;99.90;;;;;;5071158;28;20499;-67
2022/09/06 05:29:03;;;;;;;5.30;4.75;;;18.30;99.90;;;;;;5072237;28;20044;-68
2022/09/06 05:31:31;;;;;;;5.65;4.97;;;18.30;99.90;;;;;;5072541;28;20097;-68
2022/09/06 05:33:57;;;;;;;6.68;5.38;;;18.20;99.90;;;;;;5071345;28;20487;-68
2022/09/06 05:36:27;;;;;;;5.38;4.88;;;18.20;99.90;;;;;;5071105;28;20036;-68
2022/09/06 05:38:54;;;;;;;6.97;5.35;;;18.20;99.90;;;;;;5069911;28;20053;-68
2022/09/06 05:41:21;;;;;;;5.90;5.30;;;18.10;99.90;;;;;;5072242;28;20048;-68
2022/09/06 05:43:47;;;;;;;6.40;5.40;;;18.10;99.90;;;;;;5071002;28;20114;-66
2022/09/06 05:46:14;;;;;;;6.55;5.65;;;18.10;99.90;;;;;;5070886;28;20041;-67
2022/09/06 05:48:39;;;;;;;6.20;5.60;;;18.10;99.90;;;;;;5071185;28;20136;-67
2022/09/06 05:51:13;;;;;;;7.82;5.75;;;18.10;99.90;;;;;;5070736;28;20127;-68
2022/09/06 05:53:44;;;;;;;7.63;5.65;;;18.10;99.90;;;;;;5071005;28;20056;-68
2022/09/06 05:56:12;;;;;;;6.38;5.78;;;18.10;99.90;;;;;;5054094;28;20061;-68
2022/09/06 05:58:38;;;;;;;7.95;5.57;;;18.10;99.90;;;;;;5071761;28;20044;-68
2022/09/06 06:01:06;;;;;;;6.47;5.30;;;18.00;99.90;;;;;;5072008;28;20045;-68
2022/09/06 06:03:32;;;;;;;6.43;5.55;;;18.00;99.90;;;;;;5071738;28;20036;-68
2022/09/06 06:05:58;;;;;;;6.72;5.75;;;18.00;99.90;;;;;;5070843;28;20047;-68
2022/09/06 06:08:23;;;;;;;6.63;5.93;;;18.00;99.90;;;;;;5071838;28;20037;-67
2022/09/06 06:10:49;;;;;;;7.88;6.15;;;17.90;99.90;;;;;;5069325;28;20040;-67
2022/09/06 06:13:14;;;;;;;8.30;6.40;;;17.80;99.90;;;;;;5071694;28;20040;-67
2022/09/06 06:15:40;;;;;;;7.18;6.30;;;17.80;99.90;;;;;;5071563;28;20469;-67
2022/09/06 06:18:06;;;;;;;7.38;5.95;;;17.70;99.90;;;;;;5071590;28;20492;-67
2022/09/06 06:20:31;;;;;;;7.38;6.65;;;17.70;99.90;;;;;;5071647;28;20363;-67
2022/09/06 06:22:57;;;;;;;7.30;6.50;;;17.60;99.90;;;;;;5071047;28;20037;-67
2022/09/06 06:25:25;;;;;;;6.68;6.03;;;17.60;99.90;;;;;;5070466;28;20040;-67
2022/09/06 06:27:51;;;;;;;8.25;6.40;;;17.60;99.90;;;;;;5070356;28;20047;-67
2022/09/06 06:30:17;;;;;;;7.25;6.35;;;17.60;99.90;;;;;;5071629;28;20082;-67
2022/09/06 06:32:43;;;;;;;8.27;5.78;;;17.60;99.90;;;;;;5071234;28;20123;-67
2022/09/06 06:35:09;;;;;;;7.97;6.78;;;17.60;99.90;;;;;;5070349;28;20047;-67
2022/09/06 06:37:34;;;;;;;6.97;6.13;;;17.60;99.90;;;;;;5071460;28;20044;-67
2022/09/06 06:40:00;;;;;;;7.07;6.38;;;17.60;99.90;;;;;;5070101;28;20040;-67
2022/09/06 06:42:26;;;;;;;7.75;6.93;;;17.60;99.90;;;;;;5071374;28;20052;-67
2022/09/06 06:44:52;;;;;;;7.57;6.88;;;17.70;99.90;;;;;;5068996;28;20074;-67
2022/09/06 06:47:19;;;;;;;7.85;6.50;;;17.70;99.90;;;;;;5071066;28;20040;-67
2022/09/06 06:49:44;;;;;;;7.57;6.63;;;17.80;99.90;;;;;;5053457;28;20044;-67
2022/09/06 06:52:10;;;;;;;8.27;6.90;;;17.80;99.90;;;;;;5070874;28;20052;-67
2022/09/06 06:54:36;;;;;;;8.70;6.88;;;17.80;99.90;;;;;;5071356;28;20048;-67
2022/09/06 06:57:03;;;;;;;7.70;6.90;;;17.90;99.90;;;;;;5071171;28;20053;-67
2022/09/06 06:59:29;;;;;;;7.47;6.78;;;18.00;99.90;;;;;;5070051;28;20054;-67
2022/09/06 07:01:55;;;;;;;7.97;7.22;;;18.00;99.90;;;;;;5069771;28;20044;-67
2022/09/06 07:04:22;;;;;;;8.75;6.95;;;18.00;99.90;;;;;;5071101;28;20043;-67
2022/09/06 07:06:50;;;;;;;7.65;6.85;;;18.10;99.90;;;;;;5071240;28;20168;-67
2022/09/06 07:09:18;;;;;;;9.57;8.10;;;18.10;99.90;;;;;;5071173;28;20136;-67
2022/09/06 07:11:44;;;;;;;8.50;7.50;;;18.20;99.90;;;;;;5071074;28;20055;-67
2022/09/06 07:14:10;;;;;;;9.00;7.78;;;18.30;99.90;;;;;;5070173;28;20426;-67
2022/09/06 07:16:36;;;;;;;8.85;7.45;;;18.30;99.90;;;;;;5070948;28;20046;-67
2022/09/06 07:19:02;;;;;;;8.60;7.50;;;18.40;99.90;;;;;;5070978;28;20399;-67
2022/09/06 07:21:27;;;;;;;8.60;7.43;;;18.40;99.90;;;;;;5070335;28;20044;-66
2022/09/06 07:23:54;;;;;;;8.43;7.32;;;18.50;99.90;;;;;;5069732;28;20056;-67
2022/09/06 07:26:30;;;;;;;9.25;7.60;;;18.50;99.90;;;;;;5070889;28;20460;-67
2022/09/06 07:28:57;;;;;;;;;;;18.60;99.90;;;;;;5071428;28;20122;-66
2022/09/06 07:31:23;;;;;;;8.90;7.70;;;18.60;99.90;;;;;;5070932;28;20010;-68
2022/09/06 07:33:50;;;;;;;9.93;8.25;;;18.60;99.90;;;;;;5071235;28;20040;-68
2022/09/06 07:36:16;;;;;;;9.77;7.75;;;18.60;99.90;;;;;;5071080;28;20051;-67
2022/09/06 07:38:41;;;;;;;10.38;8.70;;;18.70;99.90;;;;;;5070918;28;20041;-67
2022/09/06 07:41:09;;;;;;;10.48;9.05;;;18.80;99.90;;;;;;5070525;28;20131;-67
2022/09/06 07:43:35;;;;;;;10.18;8.52;;;18.80;99.90;;;;;;5070728;28;20089;-67
2022/09/06 07:46:10;;;;;;;9.45;8.35;;;18.90;99.90;;;;;;5069592;28;20044;-68
2022/09/06 07:48:38;;;;;;;9.70;8.70;;;19.00;99.90;;;;;;5070737;28;20388;-68
2022/09/06 07:51:10;;;;;;;9.35;8.45;;;19.20;99.90;;;;;;5069661;28;20040;-67
2022/09/06 07:53:37;;;;;;;9.13;8.13;;;19.20;99.90;;;;;;5070896;28;20427;-67
2022/09/06 07:56:05;;;;;;;9.93;7.68;;;19.20;99.90;;;;;;5069507;28;20123;-67
2022/09/06 07:58:31;;;;;;;9.07;8.18;;;19.20;99.90;;;;;;5068633;28;20053;-68
2022/09/06 08:01:17;;;;;;;8.73;7.82;;;19.20;99.90;;;;;;5070738;28;20041;-68
2022/09/06 08:03:43;;;;;;;9.50;8.50;;;19.20;99.90;;;;;;5073257;28;20075;-68
2022/09/06 08:06:09;;;;;;;10.73;9.10;;;19.10;99.90;;;;;;5074211;28;20080;-68
2022/09/06 08:08:34;;;;;;;9.68;8.70;;;19.20;99.90;;;;;;5074144;28;20044;-67
2022/09/06 08:11:00;;;;;;;9.40;8.35;;;19.30;99.90;;;;;;5072817;28;20048;-68
2022/09/06 08:13:26;;;;;;;9.65;8.23;;;19.40;99.90;;;;;;5074142;28;20414;-68
2022/09/06 08:16:03;;;;;;;11.05;8.48;;;19.60;99.90;;;;;;5072853;28;20068;-66
2022/09/06 08:18:29;;;;;;;9.15;8.20;;;19.90;99.90;;;;;;5074013;28;20080;-67
2022/09/06 08:20:54;;;;;;;10.38;8.18;;;20.10;99.90;;;;;;5074038;28;20087;-67
2022/09/06 08:23:20;;;;;;;9.13;8.07;;;20.30;99.90;;;;;;5072128;28;20048;-67
2022/09/06 08:25:58;;;;;;;8.55;7.40;;;20.40;99.90;;;;;;5072718;28;20048;-67
2022/09/06 08:28:25;;;;;;;8.68;7.75;;;20.50;99.90;;;;;;5073857;28;20048;-67
2022/09/06 08:30:51;;;;;;;8.35;7.53;;;20.50;99.90;;;;;;5073858;28;20043;-67
2022/09/06 08:33:20;;;;;;;8.38;7.57;;;20.50;99.90;;;;;;5072515;28;20174;-67
2022/09/06 08:35:58;;;;;;;8.27;7.47;;;20.60;99.90;;;;;;5073544;28;20051;-67
2022/09/06 08:38:25;;;;;;;9.70;8.02;;;20.70;99.90;;;;;;5073293;28;20481;-67
2022/09/06 08:40:53;;;;;;;9.27;7.68;;;20.80;99.90;;;;;;5073843;28;20055;-67
2022/09/06 08:43:21;;;;;;;8.27;7.18;;;20.90;99.90;;;;;;5073384;28;20040;-67
2022/09/06 08:45:51;;;;;;;7.75;7.05;;;21.10;99.90;;;;;;5072075;28;20048;-67
2022/09/06 08:48:18;;;;;;;8.80;7.90;;;21.10;99.90;;;;;;5073458;28;20040;-67
2022/09/06 08:51:00;;;;;;;8.15;7.35;;;21.20;99.90;;;;;;5073259;28;20477;-67
2022/09/06 08:53:26;;;;;;;8.52;7.30;;;21.30;99.90;;;;;;5073038;28;20119;-67
2022/09/06 08:56:23;;;;;;;8.80;7.75;;;21.40;99.90;;;;;;5073053;28;20072;-68
2022/09/06 08:59:08;;;;;;;8.02;7.22;;;21.50;99.90;;;;;;5070937;28;20044;-67
2022/09/06 09:01:48;;;;;;;8.23;7.43;;;21.60;99.90;;;;;;5073189;28;20044;-67
2022/09/06 09:04:18;;;;;;;7.68;6.88;;;21.80;99.90;;;;;;5072820;28;20044;-67
2022/09/06 09:06:49;;;;;;;8.27;7.25;;;21.90;99.90;;;;;;5069729;28;20119;-67
2022/09/06 09:09:15;;;;;;;9.50;7.75;;;22.10;99.90;;;;;;5073004;28;20086;-67
2022/09/06 09:11:48;;;;;;;8.32;7.00;;;22.20;99.90;;;;;;5072018;28;20079;-68
2022/09/06 09:14:19;;;;;;;8.73;7.57;;;22.30;99.90;;;;;;5072911;28;20040;-67
2022/09/06 09:16:50;;;;;;;10.07;6.88;;;22.50;99.90;;;;;;5071919;28;20109;-68
2022/09/06 09:19:15;;;;;;;7.63;6.82;;;22.70;99.90;;;;;;5071790;28;20052;-67
2022/09/06 09:21:41;;;;;;;7.95;7.15;;;22.80;99.90;;;;;;5072158;28;20052;-68
2022/09/06 09:24:09;;;;;;;8.13;7.32;;;23.00;99.90;;;;;;5072593;28;20089;-68
2022/09/06 09:27:01;;;;;;;8.50;7.15;;;23.10;99.90;;;;;;5072711;28;20055;-68
2022/09/06 09:29:27;;;;;;;7.75;7.03;;;23.10;99.90;;;;;;5071174;28;20052;-67
2022/09/06 09:31:54;;;;;;;7.78;6.97;;;23.10;99.90;;;;;;5072944;28;20040;-67
2022/09/06 09:34:34;;;;;;;7.78;7.00;;;23.30;99.90;;;;;;5072081;28;20461;-66
2022/09/06 09:37:22;;;;;;;7.70;6.70;;;23.30;99.90;;;;;;5072486;28;20044;-67
2022/09/06 09:39:51;;;;;;;7.53;6.82;;;23.40;99.90;;;;;;5072355;28;20040;-69
2022/09/06 09:42:28;;;;;;;8.00;6.20;;;23.60;99.90;;;;;;5071355;28;20051;-67
2022/09/06 09:44:55;;;;;;;6.18;5.57;;;23.70;99.90;;;;;;5072459;28;20052;-67
2022/09/06 09:47:29;;;;;;;7.63;6.85;;;23.90;99.90;;;;;;5072189;28;20465;-67
2022/09/06 09:49:55;;;;;;;7.43;6.72;;;24.00;99.90;;;;;;5071163;28;20127;-68
2022/09/06 09:52:29;;;;;;;7.10;6.40;;;24.10;99.90;;;;;;5070818;28;20071;-68
2022/09/06 09:55:05;;;;;;;6.45;5.13;;;24.20;99.90;;;;;;5072194;28;20048;-68
2022/09/06 09:57:44;;;;;;;7.65;5.72;;;24.20;99.90;;;;;;5072253;28;20056;-68
2022/09/06 10:00:14;;;;;;;6.28;5.68;;;24.30;99.90;;;;;;5072094;28;20040;-68
2022/09/06 10:02:41;;;;;;;6.15;5.60;;;24.30;99.90;;;;;;5069422;28;20036;-68
2022/09/06 10:05:10;;;;;;;6.70;5.50;;;24.30;99.90;;;;;;5071874;28;20044;-68
2022/09/06 10:07:46;;;;;;;5.15;4.65;;;24.30;99.90;;;;;;5071795;28;20040;-68
2022/09/06 10:10:22;;;;;;;6.93;5.38;;;24.30;99.90;;;;;;5071784;28;20043;-67
2022/09/06 10:13:04;;;;;;;6.65;5.03;;;24.40;99.90;;;;;;5052055;28;20037;-67
2022/09/06 10:15:40;;;;;;;5.32;4.82;;;24.50;99.90;;;;;;5050756;28;20045;-68
2022/09/06 10:18:17;;;;;;;7.00;4.97;;;24.50;99.90;;;;;;5051308;28;20048;-67
2022/09/06 10:20:50;;;;;;;6.35;4.90;;;24.60;99.90;;;;;;5064642;28;20048;-68
2022/09/06 10:23:34;;;;;;;4.78;4.35;;;24.70;99.90;;;;;;5070994;28;20050;-67
2022/09/06 10:26:22;;;;;;;5.20;4.63;;;24.80;99.90;;;;;;5070132;28;20083;-67
2022/09/06 10:28:59;;;;;;;7.22;4.43;;;24.80;99.90;;;;;;5069359;28;20047;-67
2022/09/06 10:31:44;;;;;;;4.82;3.65;;;24.80;99.90;;;;;;5070498;28;20128;-67
2022/09/06 10:34:12;;;;;;;3.90;3.50;;;24.80;99.90;;;;;;5071410;28;20072;-67
2022/09/06 10:36:48;;;;;;;5.10;4.60;;;24.90;99.90;;;;;;5071495;28;20123;-67
2022/09/06 10:39:42;;;;;;;5.53;4.20;;;24.90;99.90;;;;;;5071524;28;20083;-67
2022/09/06 10:42:26;;;;;;;6.07;4.03;;;24.90;99.90;;;;;;5070291;28;20056;-67
2022/09/06 10:45:15;;;;;;;3.95;3.55;;;25.00;99.90;;;;;;5071354;28;20083;-66
2022/09/06 10:48:08;;;;;;;4.30;3.80;;;25.10;99.90;;;;;;5071231;28;20042;-68
2022/09/06 10:50:42;;;;;;;3.95;3.55;;;25.10;99.90;;;;;;5071350;28;20110;-68
2022/09/06 10:53:32;;;;;;;4.17;3.33;;;25.10;99.90;;;;;;5069685;28;20048;-67
2022/09/06 10:56:05;;;;;;;4.43;2.60;;;25.10;99.90;;;;;;5052589;28;20070;-67
2022/09/06 10:58:39;;;;;;;2.88;2.35;;;25.20;99.90;;;;;;5071245;28;20059;-68
2022/09/06 11:01:12;;;;;;;2.60;2.22;;;25.30;99.90;;;;;;5071529;28;20079;-68
2022/09/06 11:03:41;;;;;;;2.20;1.90;;;25.40;99.90;;;;;;5071007;28;20424;-68
2022/09/06 11:06:09;;;;;;;2.55;2.10;;;25.40;99.90;;;;;;5053528;28;20086;-68
2022/09/06 11:09:00;;;;;;;3.55;2.30;;;25.40;99.90;;;;;;5070898;28;20551;-69
2022/09/06 11:11:59;;;;;;;3.20;2.30;;;25.50;99.90;;;;;;5071264;28;20052;-68
2022/09/06 11:14:27;;;;;;;2.83;2.03;;;25.50;99.90;;;;;;5070465;28;20059;-68
2022/09/06 11:17:13;;;;;;;2.50;2.00;;;25.50;99.90;;;;;;5069719;28;20050;-68
2022/09/06 11:20:09;;;;;;;2.50;2.10;;;25.60;99.90;;;;;;5071134;28;20049;-68
2022/09/06 11:23:03;;;;;;;2.87;2.40;;;25.70;99.90;;;;;;5069428;28;20381;-68
2022/09/06 11:26:07;;;;;;;2.88;2.33;;;25.70;99.90;;;;;;5071158;28;20488;-68
2022/09/06 11:28:35;;;;;;;4.28;2.42;;;25.70;99.90;;;;;;5070049;28;20041;-68
2022/09/06 11:31:02;;;;;;;3.08;2.40;;;25.80;99.90;;;;;;5070839;28;20040;-68
2022/09/06 11:33:34;;;;;;;3.58;2.78;;;25.80;99.90;;;;;;5070905;28;20473;-68
2022/09/06 11:36:33;;;;;;;4.03;2.35;;;25.80;99.90;;;;;;5070916;28;20072;-69
2022/09/06 11:39:01;;;;;;;2.85;2.58;;;25.80;99.90;;;;;;5074282;28;20555;-68
2022/09/06 11:41:36;;;;;;;2.65;2.33;;;25.80;99.90;;;;;;5074434;28;20048;-69
2022/09/06 11:44:03;;;;;;;2.83;2.30;;;25.70;99.90;;;;;;5074557;28;20043;-66
2022/09/06 11:46:34;;;;;;;3.70;2.42;;;25.80;99.90;;;;;;5074456;28;20064;-66
2022/09/06 11:49:03;;;;;;;3.03;2.25;;;25.80;99.90;;;;;;5074575;28;20036;-67
2022/09/06 11:51:42;;;;;;;3.35;2.30;;;25.90;99.90;;;;;;5070803;28;20165;-67
2022/09/06 11:54:17;;;;;;;2.85;2.30;;;26.10;99.90;;;;;;5074394;28;20373;-68
2022/09/06 11:57:01;;;;;;;3.20;2.40;;;26.10;99.90;;;;;;5074098;28;20143;-68
2022/09/06 11:59:52;;;;;;;2.40;2.08;;;26.10;99.90;;;;;;5074434;28;20131;-67
2022/09/06 12:02:29;;;;;;;3.03;2.17;;;26.10;99.90;;;;;;5071565;28;20505;-67
2022/09/06 12:04:58;;;;;;;2.55;2.28;;;26.10;99.90;;;;;;5073917;28;20534;-67
2022/09/06 12:07:29;;;;;;;3.50;2.60;;;26.20;99.90;;;;;;5074169;28;20040;-67
2022/09/06 12:09:54;;;;;;;2.70;2.45;;;26.20;99.90;;;;;;5073233;28;20106;-68
2022/09/06 12:12:44;;;;;;;2.80;2.30;;;26.20;99.90;;;;;;5073061;28;20037;-69
2022/09/06 12:15:22;;;;;;;2.78;2.47;;;26.20;99.90;;;;;;5068008;28;20461;-67
2022/09/06 12:17:48;;;;;;;3.97;2.40;;;26.10;99.90;;;;;;5065626;28;20121;-68
2022/09/06 12:20:51;;;;;;;4.38;2.63;;;26.10;99.90;;;;;;5073601;28;20036;-68
2022/09/06 12:23:35;;;;;;;2.92;2.20;;;26.10;99.90;;;;;;5073161;28;20037;-67
2022/09/06 12:26:06;;;;;;;2.88;2.38;;;26.20;99.90;;;;;;5072688;28;20052;-68
2022/09/06 12:28:51;;;;;;;3.88;2.55;;;26.20;99.90;;;;;;5072788;28;20054;-69
2022/09/06 12:31:24;;;;;;;3.03;2.20;;;26.30;99.90;;;;;;5072670;28;20424;-67
2022/09/06 12:33:51;;;;;;;3.75;2.63;;;26.40;99.90;;;;;;5073497;28;20107;-68
2022/09/06 12:36:23;;;;;;;5.25;2.60;;;26.40;99.90;;;;;;5072734;28;20400;-67
2022/09/06 12:38:56;;;;;;;3.55;2.40;;;26.40;99.90;;;;;;5072493;28;20385;-67
2022/09/06 12:41:24;;;;;;;2.97;2.60;;;26.40;99.90;;;;;;5073696;28;20470;-67
2022/09/06 12:43:50;;;;;;;5.32;2.33;;;26.30;99.90;;;;;;5073493;28;20048;-67
2022/09/06 12:46:17;;;;;;;3.75;2.58;;;26.40;99.90;;;;;;5072351;28;20067;-67
2022/09/06 12:49:02;;;;;;;3.08;2.45;;;26.40;99.90;;;;;;5072797;28;20123;-68
2022/09/06 12:51:28;;;;;;;3.33;2.77;;;26.30;99.90;;;;;;5071912;28;20456;-68
2022/09/06 12:54:00;;;;;;;3.25;2.60;;;26.40;99.90;;;;;;5073347;28;20283;-69
2022/09/06 12:56:28;;;;;;;3.40;2.85;;;26.50;99.90;;;;;;5070849;28;20070;-68
2022/09/06 12:59:15;;;;;;;3.42;3.10;;;26.50;99.90;;;;;;5072276;28;20621;-68
2022/09/06 13:01:48;;;;;;;3.67;2.75;;;26.40;99.90;;;;;;5073553;28;20119;-68
2022/09/06 13:04:25;;;;;;;4.30;3.00;;;26.50;99.90;;;;;;5071810;28;20044;-68
2022/09/06 13:06:51;;;;;;;3.80;2.60;;;26.40;99.90;;;;;;5072117;28;20082;-68
2022/09/06 13:09:19;;;;;;;3.35;2.80;;;26.50;99.90;;;;;;5073067;28;20059;-68